sensor_id;sensor_type;location;lat;lon;timestamp;pressure;altitude;pressure_sealevel;temperature;humidity
4273;BME280;63887;53.656;9.810;2023-03-01T00:00:41;103244.00;;;-0.90;85.03
4273;BME280;63887;53.656;9.810;2023-03-01T00:03:11;103251.59;;;-0.94;84.29
4273;BME280;63887;53.656;9.810;2023-03-01T00:05:43;103253.63;;;-1.11;86.22
4273;BME280;63887;53.656;9.810;2023-03-01T00:08:11;103255.22;;;-1.14;87.36
4273;BME280;63887;53.656;9.810;2023-03-01T00:10:38;103261.38;;;-1.09;86.66
4273;BME280;63887;53.656;9.810;2023-03-01T00:13:04;103256.09;;;-1.14;86.28
4273;BME280;63887;53.656;9.810;2023-03-01T00:15:31;103258.84;;;-1.08;87.18
4273;BME280;63887;53.656;9.810;2023-03-01T00:17:57;103246.63;;;-1.15;87.33
4273;BME280;63887;53.656;9.810;2023-03-01T00:20:24;103260.22;;;-1.19;87.34
4273;BME280;63887;53.656;9.810;2023-03-01T00:22:50;103246.44;;;-1.20;87.00
4273;BME280;63887;53.656;9.810;2023-03-01T00:25:18;103242.94;;;-1.22;88.11
4273;BME280;63887;53.656;9.810;2023-03-01T00:27:46;103247.59;;;-1.11;87.67
4273;BME280;63887;53.656;9.810;2023-03-01T00:30:14;103243.16;;;-1.15;88.11
4273;BME280;63887;53.656;9.810;2023-03-01T00:32:40;103240.28;;;-1.25;87.94
4273;BME280;63887;53.656;9.810;2023-03-01T00:35:07;103244.66;;;-1.22;86.94
4273;BME280;63887;53.656;9.810;2023-03-01T00:37:34;103249.03;;;-1.20;86.13
4273;BME280;63887;53.656;9.810;2023-03-01T00:40:01;103242.75;;;-1.28;86.81
4273;BME280;63887;53.656;9.810;2023-03-01T00:42:32;103249.50;;;-1.31;87.15
4273;BME280;63887;53.656;9.810;2023-03-01T00:44:58;103248.91;;;-1.23;86.63
4273;BME280;63887;53.656;9.810;2023-03-01T00:47:25;103238.47;;;-1.27;86.75
4273;BME280;63887;53.656;9.810;2023-03-01T00:49:51;103234.84;;;-1.34;87.38
4273;BME280;63887;53.656;9.810;2023-03-01T00:52:18;103240.97;;;-1.30;88.69
4273;BME280;63887;53.656;9.810;2023-03-01T00:54:44;103238.38;;;-1.30;88.26
4273;BME280;63887;53.656;9.810;2023-03-01T00:57:11;103236.50;;;-1.34;87.79
4273;BME280;63887;53.656;9.810;2023-03-01T00:59:38;103242.72;;;-1.29;86.69
4273;BME280;63887;53.656;9.810;2023-03-01T01:02:05;103240.03;;;-1.32;86.83
4273;BME280;63887;53.656;9.810;2023-03-01T01:04:31;103237.22;;;-1.38;87.45
4273;BME280;63887;53.656;9.810;2023-03-01T01:06:58;103234.47;;;-1.44;87.59
4273;BME280;63887;53.656;9.810;2023-03-01T01:09:24;103237.31;;;-1.35;86.99
4273;BME280;63887;53.656;9.810;2023-03-01T01:11:51;103238.94;;;-1.39;86.61
4273;BME280;63887;53.656;9.810;2023-03-01T01:14:18;103230.97;;;-1.46;86.70
4273;BME280;63887;53.656;9.810;2023-03-01T01:16:46;103224.63;;;-1.56;87.96
4273;BME280;63887;53.656;9.810;2023-03-01T01:19:13;103230.59;;;-1.57;87.78
4273;BME280;63887;53.656;9.810;2023-03-01T01:21:40;103225.53;;;-1.54;87.40
4273;BME280;63887;53.656;9.810;2023-03-01T01:24:08;103231.34;;;-1.60;88.56
4273;BME280;63887;53.656;9.810;2023-03-01T01:26:35;103227.19;;;-1.56;87.71
4273;BME280;63887;53.656;9.810;2023-03-01T01:29:02;103226.16;;;-1.61;87.16
4273;BME280;63887;53.656;9.810;2023-03-01T01:31:30;103216.00;;;-1.57;86.92
4273;BME280;63887;53.656;9.810;2023-03-01T01:33:59;103225.25;;;-1.63;88.27
4273;BME280;63887;53.656;9.810;2023-03-01T01:36:25;103215.25;;;-1.54;87.41
4273;BME280;63887;53.656;9.810;2023-03-01T01:38:52;103218.03;;;-1.48;87.32
4273;BME280;63887;53.656;9.810;2023-03-01T01:41:19;103212.16;;;-1.44;86.24
4273;BME280;63887;53.656;9.810;2023-03-01T01:43:48;103207.66;;;-1.50;86.80
4273;BME280;63887;53.656;9.810;2023-03-01T01:46:21;103205.81;;;-1.54;87.21
4273;BME280;63887;53.656;9.810;2023-03-01T01:48:55;103205.91;;;-1.51;87.18
4273;BME280;63887;53.656;9.810;2023-03-01T01:51:27;103211.03;;;-1.52;87.08
4273;BME280;63887;53.656;9.810;2023-03-01T01:53:57;103199.66;;;-1.59;87.03
4273;BME280;63887;53.656;9.810;2023-03-01T01:56:26;103206.41;;;-1.62;87.85
4273;BME280;63887;53.656;9.810;2023-03-01T01:58:55;103192.28;;;-1.73;88.33
4273;BME280;63887;53.656;9.810;2023-03-01T02:01:22;103188.88;;;-1.72;88.50
4273;BME280;63887;53.656;9.810;2023-03-01T02:03:48;103191.56;;;-1.69;88.56
4273;BME280;63887;53.656;9.810;2023-03-01T02:06:20;103190.72;;;-1.68;88.81
4273;BME280;63887;53.656;9.810;2023-03-01T02:08:50;103190.81;;;-1.65;88.23
4273;BME280;63887;53.656;9.810;2023-03-01T02:11:18;103192.28;;;-1.73;89.20
4273;BME280;63887;53.656;9.810;2023-03-01T02:13:47;103183.31;;;-1.85;89.83
4273;BME280;63887;53.656;9.810;2023-03-01T02:16:14;103179.38;;;-1.75;89.19
4273;BME280;63887;53.656;9.810;2023-03-01T02:18:42;103183.88;;;-1.68;88.45
4273;BME280;63887;53.656;9.810;2023-03-01T02:21:20;103182.22;;;-1.66;88.86
4273;BME280;63887;53.656;9.810;2023-03-01T02:23:54;103182.13;;;-1.69;88.86
4273;BME280;63887;53.656;9.810;2023-03-01T02:26:26;103183.78;;;-1.71;88.25
4273;BME280;63887;53.656;9.810;2023-03-01T02:28:55;103180.34;;;-1.71;88.14
4273;BME280;63887;53.656;9.810;2023-03-01T02:31:22;103182.00;;;-1.73;88.65
4273;BME280;63887;53.656;9.810;2023-03-01T02:34:06;103187.25;;;-1.45;87.83
4273;BME280;63887;53.656;9.810;2023-03-01T02:36:36;103182.91;;;-1.71;88.73
4273;BME280;63887;53.656;9.810;2023-03-01T02:39:05;103173.69;;;-1.90;89.92
4273;BME280;63887;53.656;9.810;2023-03-01T02:41:41;103182.19;;;-1.67;88.82
4273;BME280;63887;53.656;9.810;2023-03-01T02:44:10;103178.97;;;-1.62;88.71
4273;BME280;63887;53.656;9.810;2023-03-01T02:46:42;103185.44;;;-1.73;88.15
4273;BME280;63887;53.656;9.810;2023-03-01T02:49:18;103181.75;;;-1.80;89.13
4273;BME280;63887;53.656;9.810;2023-03-01T02:51:52;103183.34;;;-1.83;89.53
4273;BME280;63887;53.656;9.810;2023-03-01T02:54:24;103185.97;;;-1.82;88.74
4273;BME280;63887;53.656;9.810;2023-03-01T02:56:53;103181.72;;;-1.81;88.25
4273;BME280;63887;53.656;9.810;2023-03-01T02:59:22;103175.53;;;-1.86;88.86
4273;BME280;63887;53.656;9.810;2023-03-01T03:01:50;103171.81;;;-1.94;89.39
4273;BME280;63887;53.656;9.810;2023-03-01T03:04:18;103162.28;;;-1.97;88.77
4273;BME280;63887;53.656;9.810;2023-03-01T03:06:47;103165.88;;;-1.93;88.56
4273;BME280;63887;53.656;9.810;2023-03-01T03:09:14;103167.22;;;-2.03;89.14
4273;BME280;63887;53.656;9.810;2023-03-01T03:11:41;103165.59;;;-2.01;89.45
4273;BME280;63887;53.656;9.810;2023-03-01T03:14:09;103162.53;;;-1.91;88.65
4273;BME280;63887;53.656;9.810;2023-03-01T03:16:40;103163.28;;;-1.93;89.72
4273;BME280;63887;53.656;9.810;2023-03-01T03:19:07;103167.22;;;-2.03;89.40
4273;BME280;63887;53.656;9.810;2023-03-01T03:21:34;103155.25;;;-2.02;89.41
4273;BME280;63887;53.656;9.810;2023-03-01T03:24:01;103160.38;;;-2.02;89.85
4273;BME280;63887;53.656;9.810;2023-03-01T03:26:28;103156.88;;;-2.04;90.74
4273;BME280;63887;53.656;9.810;2023-03-01T03:28:54;103158.69;;;-2.02;90.46
4273;BME280;63887;53.656;9.810;2023-03-01T03:31:21;103152.88;;;-1.96;90.48
4273;BME280;63887;53.656;9.810;2023-03-01T03:33:49;103158.84;;;-1.97;91.04
4273;BME280;63887;53.656;9.810;2023-03-01T03:36:16;103157.88;;;-2.01;91.00
4273;BME280;63887;53.656;9.810;2023-03-01T03:38:43;103158.41;;;-1.86;89.74
4273;BME280;63887;53.656;9.810;2023-03-01T03:41:10;103149.75;;;-1.88;90.10
4273;BME280;63887;53.656;9.810;2023-03-01T03:43:39;103146.56;;;-1.81;89.66
4273;BME280;63887;53.656;9.810;2023-03-01T03:46:06;103148.16;;;-1.84;88.95
4273;BME280;63887;53.656;9.810;2023-03-01T03:48:34;103143.13;;;-1.81;89.23
4273;BME280;63887;53.656;9.810;2023-03-01T03:51:02;103145.41;;;-1.90;89.62
4273;BME280;63887;53.656;9.810;2023-03-01T03:53:30;103141.75;;;-1.95;90.36
4273;BME280;63887;53.656;9.810;2023-03-01T03:55:57;103135.94;;;-1.91;89.74
4273;BME280;63887;53.656;9.810;2023-03-01T03:58:24;103132.59;;;-1.89;89.46
4273;BME280;63887;53.656;9.810;2023-03-01T04:00:53;103134.53;;;-2.07;91.18
4273;BME280;63887;53.656;9.810;2023-03-01T04:03:21;103132.69;;;-2.10;91.38
4273;BME280;63887;53.656;9.810;2023-03-01T04:05:49;103133.50;;;-2.11;90.77
4273;BME280;63887;53.656;9.810;2023-03-01T04:08:18;103128.59;;;-2.04;90.51
4273;BME280;63887;53.656;9.810;2023-03-01T04:10:47;103121.72;;;-2.05;91.49
4273;BME280;63887;53.656;9.810;2023-03-01T04:13:16;103131.06;;;-2.07;91.25
4273;BME280;63887;53.656;9.810;2023-03-01T04:15:44;103119.91;;;-2.08;91.12
4273;BME280;63887;53.656;9.810;2023-03-01T04:18:12;103118.78;;;-1.91;90.03
4273;BME280;63887;53.656;9.810;2023-03-01T04:20:39;103116.53;;;-1.82;89.88
4273;BME280;63887;53.656;9.810;2023-03-01T04:23:08;103116.53;;;-1.82;90.55
4273;BME280;63887;53.656;9.810;2023-03-01T04:25:41;103120.50;;;-1.91;89.84
4273;BME280;63887;53.656;9.810;2023-03-01T04:28:08;103120.25;;;-1.97;90.18
4273;BME280;63887;53.656;9.810;2023-03-01T04:30:35;103122.28;;;-1.89;90.63
4273;BME280;63887;53.656;9.810;2023-03-01T04:33:03;103128.75;;;-2.00;90.59
4273;BME280;63887;53.656;9.810;2023-03-01T04:35:30;103127.59;;;-1.84;90.01
4273;BME280;63887;53.656;9.810;2023-03-01T04:37:56;103130.59;;;-1.96;90.39
4273;BME280;63887;53.656;9.810;2023-03-01T04:40:23;103133.16;;;-1.72;90.14
4273;BME280;63887;53.656;9.810;2023-03-01T04:42:51;103130.47;;;-1.75;90.38
4273;BME280;63887;53.656;9.810;2023-03-01T04:45:17;103130.44;;;-1.76;90.31
4273;BME280;63887;53.656;9.810;2023-03-01T04:47:45;103131.50;;;-1.70;89.85
4273;BME280;63887;53.656;9.810;2023-03-01T04:50:14;103124.09;;;-1.61;89.34
4273;BME280;63887;53.656;9.810;2023-03-01T04:52:41;103137.28;;;-1.77;90.27
4273;BME280;63887;53.656;9.810;2023-03-01T04:55:09;103131.44;;;-1.71;89.98
4273;BME280;63887;53.656;9.810;2023-03-01T04:57:35;103134.44;;;-1.59;90.70
4273;BME280;63887;53.656;9.810;2023-03-01T05:00:04;103139.13;;;-1.47;89.21
4273;BME280;63887;53.656;9.810;2023-03-01T05:02:46;103128.19;;;-1.40;89.54
4273;BME280;63887;53.656;9.810;2023-03-01T05:05:13;103134.94;;;-1.44;89.98
4273;BME280;63887;53.656;9.810;2023-03-01T05:07:40;103128.34;;;-1.36;88.30
4273;BME280;63887;53.656;9.810;2023-03-01T05:10:07;103123.09;;;-1.12;87.88
4273;BME280;63887;53.656;9.810;2023-03-01T05:12:34;103128.38;;;-1.34;89.23
4273;BME280;63887;53.656;9.810;2023-03-01T05:15:04;103118.16;;;-1.33;89.58
4273;BME280;63887;53.656;9.810;2023-03-01T05:17:32;103118.16;;;-1.33;90.28
4273;BME280;63887;53.656;9.810;2023-03-01T05:19:58;103119.59;;;-1.14;89.32
4273;BME280;63887;53.656;9.810;2023-03-01T05:22:26;103114.63;;;-1.08;88.44
4273;BME280;63887;53.656;9.810;2023-03-01T05:24:52;103113.22;;;-0.98;88.26
4273;BME280;63887;53.656;9.810;2023-03-01T05:27:19;103118.88;;;-0.81;87.90
4273;BME280;63887;53.656;9.810;2023-03-01T05:29:47;103121.81;;;-0.69;86.20
4273;BME280;63887;53.656;9.810;2023-03-01T05:32:15;103123.66;;;-0.94;86.83
4273;BME280;63887;53.656;9.810;2023-03-01T05:34:42;103121.13;;;-0.92;87.75
4273;BME280;63887;53.656;9.810;2023-03-01T05:37:09;103110.84;;;-0.91;86.92
4273;BME280;63887;53.656;9.810;2023-03-01T05:39:36;103110.97;;;-0.59;85.18
4273;BME280;63887;53.656;9.810;2023-03-01T05:42:02;103118.34;;;-0.71;85.53
4273;BME280;63887;53.656;9.810;2023-03-01T05:44:30;103120.41;;;-0.88;86.78
4273;BME280;63887;53.656;9.810;2023-03-01T05:46:56;103113.72;;;-0.81;86.23
4273;BME280;63887;53.656;9.810;2023-03-01T05:49:25;103102.78;;;-1.03;88.69
4273;BME280;63887;53.656;9.810;2023-03-01T05:51:52;103106.19;;;-1.04;88.96
4273;BME280;63887;53.656;9.810;2023-03-01T05:54:19;103094.13;;;-1.05;88.98
4273;BME280;63887;53.656;9.810;2023-03-01T05:56:46;103098.63;;;-0.69;87.65
4273;BME280;63887;53.656;9.810;2023-03-01T05:59:13;103098.34;;;-0.78;87.97
4273;BME280;63887;53.656;9.810;2023-03-01T06:01:41;103094.56;;;-0.90;89.05
4273;BME280;63887;53.656;9.810;2023-03-01T06:04:08;103092.06;;;-0.88;89.40
4273;BME280;63887;53.656;9.810;2023-03-01T06:06:36;103084.97;;;-0.95;89.28
4273;BME280;63887;53.656;9.810;2023-03-01T06:09:03;103086.47;;;-1.03;90.40
4273;BME280;63887;53.656;9.810;2023-03-01T06:11:30;103092.50;;;-1.03;90.75
4273;BME280;63887;53.656;9.810;2023-03-01T06:13:56;103093.25;;;-1.05;90.22
4273;BME280;63887;53.656;9.810;2023-03-01T06:16:22;103095.69;;;-1.10;90.55
4273;BME280;63887;53.656;9.810;2023-03-01T06:18:49;103098.47;;;-1.04;90.60
4273;BME280;63887;53.656;9.810;2023-03-01T06:21:16;103093.09;;;-1.10;90.74
4273;BME280;63887;53.656;9.810;2023-03-01T06:23:44;103095.69;;;-1.10;91.35
4273;BME280;63887;53.656;9.810;2023-03-01T06:26:10;103097.56;;;-1.04;91.29
4273;BME280;63887;53.656;9.810;2023-03-01T06:28:37;103094.28;;;-1.00;90.11
4273;BME280;63887;53.656;9.810;2023-03-01T06:31:04;103104.72;;;-0.96;90.90
4273;BME280;63887;53.656;9.810;2023-03-01T06:33:33;103099.81;;;-0.88;90.09
4273;BME280;63887;53.656;9.810;2023-03-01T06:36:01;103092.13;;;-0.86;89.05
4273;BME280;63887;53.656;9.810;2023-03-01T06:38:27;103094.94;;;-0.77;88.66
4273;BME280;63887;53.656;9.810;2023-03-01T06:40:55;103095.19;;;-0.70;88.53
4273;BME280;63887;53.656;9.810;2023-03-01T06:43:22;103093.56;;;-0.66;88.71
4273;BME280;63887;53.656;9.810;2023-03-01T06:45:49;103096.22;;;-0.63;89.19
4273;BME280;63887;53.656;9.810;2023-03-01T06:48:16;103099.91;;;-0.55;88.82
4273;BME280;63887;53.656;9.810;2023-03-01T06:50:42;103103.59;;;-0.45;87.43
4273;BME280;63887;53.656;9.810;2023-03-01T06:53:08;103107.19;;;-0.40;88.03
4273;BME280;63887;53.656;9.810;2023-03-01T06:55:35;103111.00;;;-0.27;87.19
4273;BME280;63887;53.656;9.810;2023-03-01T06:58:03;103105.19;;;-0.19;86.27
4273;BME280;63887;53.656;9.810;2023-03-01T07:00:30;103102.63;;;-0.19;85.14
4273;BME280;63887;53.656;9.810;2023-03-01T07:02:58;103105.56;;;-0.05;83.73
4273;BME280;63887;53.656;9.810;2023-03-01T07:05:27;103101.81;;;0.15;82.98
4273;BME280;63887;53.656;9.810;2023-03-01T07:07:53;103107.66;;;0.08;83.75
4273;BME280;63887;53.656;9.810;2023-03-01T07:10:21;103112.31;;;0.23;82.00
4273;BME280;63887;53.656;9.810;2023-03-01T07:12:47;103105.16;;;0.13;84.08
4273;BME280;63887;53.656;9.810;2023-03-01T07:15:15;103109.59;;;0.17;84.36
4273;BME280;63887;53.656;9.810;2023-03-01T07:17:42;103105.84;;;0.39;82.78
4273;BME280;63887;53.656;9.810;2023-03-01T07:20:10;103107.25;;;0.61;81.37
4273;BME280;63887;53.656;9.810;2023-03-01T07:22:39;103114.66;;;0.47;82.77
4273;BME280;63887;53.656;9.810;2023-03-01T07:25:06;103109.69;;;0.56;80.09
4273;BME280;63887;53.656;9.810;2023-03-01T07:27:33;103106.47;;;0.65;80.53
4273;BME280;63887;53.656;9.810;2023-03-01T07:29:59;103085.56;;;0.54;81.90
4273;BME280;63887;53.656;9.810;2023-03-01T07:32:27;103099.25;;;0.87;80.70
4273;BME280;63887;53.656;9.810;2023-03-01T07:34:53;103095.47;;;0.73;81.90
4273;BME280;63887;53.656;9.810;2023-03-01T07:37:20;103092.00;;;0.71;81.54
4273;BME280;63887;53.656;9.810;2023-03-01T07:39:46;103093.84;;;0.75;80.81
4273;BME280;63887;53.656;9.810;2023-03-01T07:42:13;103091.81;;;0.64;82.84
4273;BME280;63887;53.656;9.810;2023-03-01T07:44:39;103090.47;;;0.79;81.83
4273;BME280;63887;53.656;9.810;2023-03-01T07:47:06;103096.41;;;1.14;80.26
4273;BME280;63887;53.656;9.810;2023-03-01T07:49:34;103083.09;;;0.96;80.59
4273;BME280;63887;53.656;9.810;2023-03-01T07:52:00;103096.38;;;1.13;81.39
4273;BME280;63887;53.656;9.810;2023-03-01T07:54:26;103099.81;;;1.12;81.04
4273;BME280;63887;53.656;9.810;2023-03-01T07:56:53;103103.03;;;1.42;80.07
4273;BME280;63887;53.656;9.810;2023-03-01T07:59:19;103102.84;;;1.77;78.95
4273;BME280;63887;53.656;9.810;2023-03-01T08:01:46;103101.66;;;2.05;77.68
4273;BME280;63887;53.656;9.810;2023-03-01T08:04:12;103094.75;;;2.04;77.42
4273;BME280;63887;53.656;9.810;2023-03-01T08:06:40;103097.47;;;2.10;78.10
4273;BME280;63887;53.656;9.810;2023-03-01T08:09:06;103095.50;;;1.97;78.90
4273;BME280;63887;53.656;9.810;2023-03-01T08:11:33;103097.97;;;1.92;79.38
4273;BME280;63887;53.656;9.810;2023-03-01T08:14:00;103102.22;;;1.89;79.80
4273;BME280;63887;53.656;9.810;2023-03-01T08:16:26;103100.03;;;2.10;78.44
4273;BME280;63887;53.656;9.810;2023-03-01T08:18:53;103103.06;;;2.37;77.91
4273;BME280;63887;53.656;9.810;2023-03-01T08:21:22;103102.56;;;2.58;78.04
4273;BME280;63887;53.656;9.810;2023-03-01T08:23:49;103101.94;;;2.73;77.24
4273;BME280;63887;53.656;9.810;2023-03-01T08:26:18;103107.56;;;2.46;78.65
4273;BME280;63887;53.656;9.810;2023-03-01T08:28:46;103107.75;;;2.57;78.66
4273;BME280;63887;53.656;9.810;2023-03-01T08:31:15;103099.13;;;2.58;78.84
4273;BME280;63887;53.656;9.810;2023-03-01T08:33:42;103094.97;;;2.69;78.93
4273;BME280;63887;53.656;9.810;2023-03-01T08:36:08;103098.47;;;2.73;79.20
4273;BME280;63887;53.656;9.810;2023-03-01T08:38:35;103094.59;;;2.46;81.05
4273;BME280;63887;53.656;9.810;2023-03-01T08:41:03;103090.59;;;2.66;80.06
4273;BME280;63887;53.656;9.810;2023-03-01T08:43:30;103082.75;;;2.60;80.50
4273;BME280;63887;53.656;9.810;2023-03-01T08:45:56;103081.84;;;2.58;80.61
4273;BME280;63887;53.656;9.810;2023-03-01T08:48:23;103088.19;;;2.79;79.36
4273;BME280;63887;53.656;9.810;2023-03-01T08:50:49;103096.84;;;2.81;79.99
4273;BME280;63887;53.656;9.810;2023-03-01T08:53:16;103098.47;;;2.73;80.56
4273;BME280;63887;53.656;9.810;2023-03-01T08:55:42;103101.91;;;2.72;80.81
4273;BME280;63887;53.656;9.810;2023-03-01T08:58:10;103107.28;;;2.84;81.09
4273;BME280;63887;53.656;9.810;2023-03-01T09:00:36;103108.28;;;2.93;80.70
4273;BME280;63887;53.656;9.810;2023-03-01T09:03:03;103112.69;;;2.99;80.62
4273;BME280;63887;53.656;9.810;2023-03-01T09:05:31;103102.34;;;3.01;79.99
4273;BME280;63887;53.656;9.810;2023-03-01T09:07:57;103103.84;;;2.83;81.35
4273;BME280;63887;53.656;9.810;2023-03-01T09:10:23;103106.56;;;2.94;80.89
4273;BME280;63887;53.656;9.810;2023-03-01T09:12:51;103107.53;;;3.01;79.93
4273;BME280;63887;53.656;9.810;2023-03-01T09:15:18;103100.00;;;3.17;79.96
4273;BME280;63887;53.656;9.810;2023-03-01T09:17:45;103102.75;;;3.31;79.52
4273;BME280;63887;53.656;9.810;2023-03-01T09:20:12;103108.06;;;3.42;78.65
4273;BME280;63887;53.656;9.810;2023-03-01T09:22:38;103108.88;;;3.36;79.13
4273;BME280;63887;53.656;9.810;2023-03-01T09:25:05;103108.63;;;3.16;79.95
4273;BME280;63887;53.656;9.810;2023-03-01T09:27:32;103104.34;;;3.20;80.31
4273;BME280;63887;53.656;9.810;2023-03-01T09:29:59;103106.88;;;3.15;80.52
4273;BME280;63887;53.656;9.810;2023-03-01T09:32:35;103106.03;;;3.18;80.48
4273;BME280;63887;53.656;9.810;2023-03-01T09:35:08;103104.09;;;3.02;81.35
4273;BME280;63887;53.656;9.810;2023-03-01T09:37:35;103108.25;;;2.92;81.88
4273;BME280;63887;53.656;9.810;2023-03-01T09:40:03;103106.09;;;3.22;80.51
4273;BME280;63887;53.656;9.810;2023-03-01T09:42:31;103111.44;;;3.35;80.34
4273;BME280;63887;53.656;9.810;2023-03-01T09:45:02;103100.00;;;3.19;80.66
4273;BME280;63887;53.656;9.810;2023-03-01T09:47:34;103101.03;;;3.32;80.57
4273;BME280;63887;53.656;9.810;2023-03-01T09:50:06;103107.03;;;3.27;81.40
4273;BME280;63887;53.656;9.810;2023-03-01T09:52:39;103103.66;;;3.33;80.96
4273;BME280;63887;53.656;9.810;2023-03-01T09:55:10;103107.16;;;3.38;81.22
4273;BME280;63887;53.656;9.810;2023-03-01T09:57:43;103110.19;;;3.05;82.32
4273;BME280;63887;53.656;9.810;2023-03-01T10:00:22;103094.91;;;3.26;81.38
4273;BME280;63887;53.656;9.810;2023-03-01T10:02:57;103101.53;;;3.03;82.76
4273;BME280;63887;53.656;9.810;2023-03-01T10:05:39;103103.53;;;3.25;81.82
4273;BME280;63887;53.656;9.810;2023-03-01T10:08:30;103106.91;;;3.17;82.16
4273;BME280;63887;53.656;9.810;2023-03-01T10:11:02;103106.16;;;3.27;81.94
4273;BME280;63887;53.656;9.810;2023-03-01T10:13:37;103107.88;;;3.26;82.08
4273;BME280;63887;53.656;9.810;2023-03-01T10:16:12;103108.81;;;3.30;82.05
4273;BME280;63887;53.656;9.810;2023-03-01T10:18:41;103114.03;;;3.35;81.86
4273;BME280;63887;53.656;9.810;2023-03-01T10:21:14;103109.00;;;3.47;82.12
4273;BME280;63887;53.656;9.810;2023-03-01T10:23:41;103106.97;;;3.24;82.57
4273;BME280;63887;53.656;9.810;2023-03-01T10:26:26;103118.53;;;3.48;81.18
4273;BME280;63887;53.656;9.810;2023-03-01T10:29:02;103110.63;;;3.39;81.63
4273;BME280;63887;53.656;9.810;2023-03-01T10:31:38;103106.50;;;3.56;80.90
4273;BME280;63887;53.656;9.810;2023-03-01T10:34:11;103107.50;;;3.67;80.49
4273;BME280;63887;53.656;9.810;2023-03-01T10:36:39;103101.47;;;3.67;80.73
4273;BME280;63887;53.656;9.810;2023-03-01T10:39:12;103098.94;;;3.73;80.09
4273;BME280;63887;53.656;9.810;2023-03-01T10:41:52;103102.47;;;3.79;80.19
4273;BME280;63887;53.656;9.810;2023-03-01T10:44:36;103099.53;;;3.49;81.76
4273;BME280;63887;53.656;9.810;2023-03-01T10:47:03;103091.06;;;3.67;81.19
4273;BME280;63887;53.656;9.810;2023-03-01T10:49:31;103092.75;;;3.62;81.41
4273;BME280;63887;53.656;9.810;2023-03-01T10:52:17;103094.53;;;3.67;81.48
4273;BME280;63887;53.656;9.810;2023-03-01T10:54:52;103091.03;;;3.62;82.28
4273;BME280;63887;53.656;9.810;2023-03-01T10:57:31;103086.44;;;3.40;83.04
4273;BME280;63887;53.656;9.810;2023-03-01T11:00:14;103091.63;;;3.41;83.33
4273;BME280;63887;53.656;9.810;2023-03-01T11:02:42;103082.91;;;3.33;84.91
4273;BME280;63887;53.656;9.810;2023-03-01T11:05:18;103080.75;;;3.00;85.77
4273;BME280;63887;53.656;9.810;2023-03-01T11:07:49;103078.19;;;3.03;86.29
4273;BME280;63887;53.656;9.810;2023-03-01T11:10:18;103084.31;;;3.11;86.52
4273;BME280;63887;53.656;9.810;2023-03-01T11:12:45;103085.25;;;3.15;86.82
4273;BME280;63887;53.656;9.810;2023-03-01T11:15:21;103074.97;;;3.21;86.67
4273;BME280;63887;53.656;9.810;2023-03-01T11:17:48;103065.38;;;3.15;87.09
4273;BME280;63887;53.656;9.810;2023-03-01T11:20:23;103074.25;;;3.33;86.00
4273;BME280;63887;53.656;9.810;2023-03-01T11:22:52;103071.81;;;3.45;85.92
4273;BME280;63887;53.656;9.810;2023-03-01T11:25:23;103070.19;;;3.56;85.60
4273;BME280;63887;53.656;9.810;2023-03-01T11:27:51;103067.59;;;3.56;85.73
4273;BME280;63887;53.656;9.810;2023-03-01T11:30:22;103073.44;;;3.38;86.02
4273;BME280;63887;53.656;9.810;2023-03-01T11:32:57;103071.75;;;3.42;85.96
4273;BME280;63887;53.656;9.810;2023-03-01T11:35:29;103069.28;;;3.51;86.10
4273;BME280;63887;53.656;9.810;2023-03-01T11:38:05;103064.09;;;3.52;85.83
4273;BME280;63887;53.656;9.810;2023-03-01T11:40:40;103067.66;;;3.59;85.69
4273;BME280;63887;53.656;9.810;2023-03-01T11:43:16;103060.75;;;3.61;86.30
4273;BME280;63887;53.656;9.810;2023-03-01T11:45:58;103064.28;;;3.69;85.03
4273;BME280;63887;53.656;9.810;2023-03-01T11:48:42;103059.91;;;3.64;86.32
4273;BME280;63887;53.656;9.810;2023-03-01T11:51:20;103056.56;;;3.72;86.16
4273;BME280;63887;53.656;9.810;2023-03-01T11:53:57;103056.34;;;3.57;86.72
4273;BME280;63887;53.656;9.810;2023-03-01T11:56:32;103053.16;;;3.81;86.12
4273;BME280;63887;53.656;9.810;2023-03-01T11:59:17;103043.72;;;3.89;85.70
4273;BME280;63887;53.656;9.810;2023-03-01T12:01:55;103050.66;;;3.90;85.28
4273;BME280;63887;53.656;9.810;2023-03-01T12:07:48;103049.81;;;3.93;86.49
4273;BME280;63887;53.656;9.810;2023-03-01T12:10:23;103047.94;;;3.79;86.67
4273;BME280;63887;53.656;9.810;2023-03-01T12:13:13;103037.84;;;4.07;85.24
4273;BME280;63887;53.656;9.810;2023-03-01T12:15:54;103037.00;;;4.14;85.18
4273;BME280;63887;53.656;9.810;2023-03-01T12:18:56;103033.50;;;4.09;84.81
4273;BME280;63887;53.656;9.810;2023-03-01T12:21:46;103031.78;;;4.06;85.27
4273;BME280;63887;53.656;9.810;2023-03-01T12:24:31;103029.97;;;3.99;85.57
4273;BME280;63887;53.656;9.810;2023-03-01T12:27:14;103036.66;;;3.74;86.94
4273;BME280;63887;53.656;9.810;2023-03-01T12:29:53;103031.00;;;4.18;85.62
4273;BME280;63887;53.656;9.810;2023-03-01T12:32:37;103026.72;;;4.26;85.92
4273;BME280;63887;53.656;9.810;2023-03-01T12:35:20;103029.44;;;4.44;85.41
4273;BME280;63887;53.656;9.810;2023-03-01T12:37:55;103025.09;;;4.39;85.69
4273;BME280;63887;53.656;9.810;2023-03-01T12:40:34;103019.97;;;4.49;84.86
4273;BME280;63887;53.656;9.810;2023-03-01T12:43:17;103013.94;;;4.58;84.77
4273;BME280;63887;53.656;9.810;2023-03-01T12:45:52;103014.81;;;4.60;85.18
4273;BME280;63887;53.656;9.810;2023-03-01T12:48:36;103013.91;;;4.47;85.53
4273;BME280;63887;53.656;9.810;2023-03-01T12:51:08;103009.41;;;4.28;86.50
4273;BME280;63887;53.656;9.810;2023-03-01T12:53:39;102995.66;;;4.38;86.04
4273;BME280;63887;53.656;9.810;2023-03-01T12:56:10;102997.25;;;4.21;87.00
4273;BME280;63887;53.656;9.810;2023-03-01T12:58:42;102995.56;;;4.26;86.73
4273;BME280;63887;53.656;9.810;2023-03-01T13:01:22;102999.13;;;4.39;85.90
4273;BME280;63887;53.656;9.810;2023-03-01T13:04:06;102997.38;;;4.38;86.48
4273;BME280;63887;53.656;9.810;2023-03-01T13:06:41;102992.19;;;4.42;85.49
4273;BME280;63887;53.656;9.810;2023-03-01T13:09:17;102981.78;;;4.36;85.88
4273;BME280;63887;53.656;9.810;2023-03-01T13:11:47;102986.09;;;4.33;85.66
4273;BME280;63887;53.656;9.810;2023-03-01T13:14:36;102984.38;;;4.33;85.76
4273;BME280;63887;53.656;9.810;2023-03-01T13:17:03;102973.97;;;4.36;85.42
4273;BME280;63887;53.656;9.810;2023-03-01T13:19:29;102977.38;;;4.26;85.61
4273;BME280;63887;53.656;9.810;2023-03-01T13:21:57;102980.94;;;4.42;85.63